CSCL Long Beach — VRCZ7 — position and weather

sailwx.info

Track history (hours):
 
Tides and Currents Weather Stations Pressure Air Temp Water Temp Dewpoint Dewpoint Depression Visibility Wind Speed Wind Dir Waves Ship Positions

CSCL Long Beach

Last reported at 2016-Jul-28 15:33 UTC. Time now 2016-Jul-28 16:17 UTC.
Position N 31°15' W 123°28'.

Length 336.7 m; beam 45.6 m; draft 15 m.

Type: Ship. MMSI: 477883900.

Date/timePositionNaut miles runAvg speedWind from/ knotsBaromVisibWave heightAir tempDewpointWater temp
2016-Jul-28 15:33N 31°15' W 123°28'2019.6
2016-Jul-28 14:33N 31°28' W 123°45'1919.6
2016-Jul-28 13:33N 31°41' W 124°02'2119.7
2016-Jul-28 12:28N 31°55' W 124°21'1819.5
2016-Jul-28 11:33N 32°06' W 124°38'1919.4
2016-Jul-28 10:33N 32°18' W 124°56'2319.2
2016-Jul-28 09:21N 32°32' W 125°18'3519.3
2016-Jul-28 07:33N 32°54' W 125°50'1919.4
2016-Jul-28 06:33N 33°07' W 126°06'1919.3
2016-Jul-28 05:33N 33°19' W 126°24'2019.4
2016-Jul-28 04:33N 33°31' W 126°43'2019.4
2016-Jul-28 03:32N 33°44' W 127°01'1919.0
2016-Jul-28 02:31N 33°56' W 127°19'1818.8
2016-Jul-28 01:33N 34°07' W 127°36'1918.8
2016-Jul-28 00:33N 34°19' W 127°53'1918.9
2016-Jul-27 23:33N 34°31' W 128°11'1919.0
2016-Jul-27 22:33N 34°43' W 128°29'1918.9
2016-Jul-27 21:33N 34°55' W 128°47'1918.9
2016-Jul-27 20:33N 35°07' W 129°05'1918.9
2016-Jul-27 19:33N 35°20' W 129°22'4219.0
2016-Jul-27 17:22N 35°46' W 130°02'5919.1
2016-Jul-27 14:17N 36°17' W 131°04'5818.5
2016-Jul-27 11:07N 36°47' W 132°06'1817.5
2016-Jul-27 10:07N 36°57' W 132°25'1819.1
2016-Jul-27 09:11N 37°06' W 132°44'  
Track history (hours):
 
Tides and Currents Weather Stations Pressure Air Temp Water Temp Dewpoint Dewpoint Depression Visibility Wind Speed Wind Dir Waves Ship Positions

CSCL Long Beach

Last reported at 2016-Jul-28 15:33 UTC. Time now 2016-Jul-28 16:17 UTC.
Position N 31°15' W 123°28'.

Length 336.7 m; beam 45.6 m; draft 15 m.

Type: Ship. MMSI: 477883900.

Date/timePositionNaut miles runAvg speedWind from/ knotsBaromVisibWave heightAir tempDewpointWater temp
2016-Jul-28 15:33N 31°15' W 123°28'2019.6
2016-Jul-28 14:33N 31°28' W 123°45'1919.6
2016-Jul-28 13:33N 31°41' W 124°02'2119.7
2016-Jul-28 12:28N 31°55' W 124°21'1819.5
2016-Jul-28 11:33N 32°06' W 124°38'1919.4
2016-Jul-28 10:33N 32°18' W 124°56'2319.2
2016-Jul-28 09:21N 32°32' W 125°18'3519.3
2016-Jul-28 07:33N 32°54' W 125°50'1919.4
2016-Jul-28 06:33N 33°07' W 126°06'1919.3
2016-Jul-28 05:33N 33°19' W 126°24'2019.4
2016-Jul-28 04:33N 33°31' W 126°43'2019.4
2016-Jul-28 03:32N 33°44' W 127°01'1919.0
2016-Jul-28 02:31N 33°56' W 127°19'1818.8
2016-Jul-28 01:33N 34°07' W 127°36'1918.8
2016-Jul-28 00:33N 34°19' W 127°53'1918.9
2016-Jul-27 23:33N 34°31' W 128°11'1919.0
2016-Jul-27 22:33N 34°43' W 128°29'1918.9
2016-Jul-27 21:33N 34°55' W 128°47'1918.9
2016-Jul-27 20:33N 35°07' W 129°05'1918.9
2016-Jul-27 19:33N 35°20' W 129°22'4219.0
2016-Jul-27 17:22N 35°46' W 130°02'5919.1
2016-Jul-27 14:17N 36°17' W 131°04'5818.5
2016-Jul-27 11:07N 36°47' W 132°06'1817.5
2016-Jul-27 10:07N 36°57' W 132°25'1819.1
2016-Jul-27 09:11N 37°06' W 132°44'  

Dump ship's entire track history